sensor_id;sensor_type;location;lat;lon;timestamp;temperature;humidity
46730;DHT22;32476;50.002;11.854;2023-05-23T00:00:15;15.30;99.90
46730;DHT22;32476;50.002;11.854;2023-05-23T00:02:42;15.30;99.90
46730;DHT22;32476;50.002;11.854;2023-05-23T00:05:09;15.00;99.90
46730;DHT22;32476;50.002;11.854;2023-05-23T00:07:35;14.80;99.90
46730;DHT22;32476;50.002;11.854;2023-05-23T00:10:03;14.70;99.90
46730;DHT22;32476;50.002;11.854;2023-05-23T00:12:28;14.50;99.90
46730;DHT22;32476;50.002;11.854;2023-05-23T00:14:54;14.40;99.90
46730;DHT22;32476;50.002;11.854;2023-05-23T00:17:22;14.40;99.90
46730;DHT22;32476;50.002;11.854;2023-05-23T00:19:50;14.40;99.90
46730;DHT22;32476;50.002;11.854;2023-05-23T00:22:17;14.30;99.90
46730;DHT22;32476;50.002;11.854;2023-05-23T00:24:44;14.30;99.90
46730;DHT22;32476;50.002;11.854;2023-05-23T00:27:10;14.30;99.90
46730;DHT22;32476;50.002;11.854;2023-05-23T00:29:36;14.20;99.90
46730;DHT22;32476;50.002;11.854;2023-05-23T00:32:03;14.00;99.90
46730;DHT22;32476;50.002;11.854;2023-05-23T00:34:29;14.00;99.90
46730;DHT22;32476;50.002;11.854;2023-05-23T00:36:55;14.00;99.90
46730;DHT22;32476;50.002;11.854;2023-05-23T00:39:24;14.00;99.90
46730;DHT22;32476;50.002;11.854;2023-05-23T00:41:50;14.00;99.90
46730;DHT22;32476;50.002;11.854;2023-05-23T00:44:17;14.00;99.90
46730;DHT22;32476;50.002;11.854;2023-05-23T00:46:50;14.00;99.90
46730;DHT22;32476;50.002;11.854;2023-05-23T00:49:16;14.00;99.90
46730;DHT22;32476;50.002;11.854;2023-05-23T00:51:46;13.90;99.90
46730;DHT22;32476;50.002;11.854;2023-05-23T00:54:15;14.00;99.90
46730;DHT22;32476;50.002;11.854;2023-05-23T00:56:43;14.00;99.90
46730;DHT22;32476;50.002;11.854;2023-05-23T00:59:11;14.00;99.90
46730;DHT22;32476;50.002;11.854;2023-05-23T01:01:37;13.90;99.90
46730;DHT22;32476;50.002;11.854;2023-05-23T01:04:03;13.80;99.90
46730;DHT22;32476;50.002;11.854;2023-05-23T01:06:30;13.80;99.90
46730;DHT22;32476;50.002;11.854;2023-05-23T01:08:57;13.80;99.90
46730;DHT22;32476;50.002;11.854;2023-05-23T01:17:30;13.90;99.90
46730;DHT22;32476;50.002;11.854;2023-05-23T01:20:02;13.80;99.90
46730;DHT22;32476;50.002;11.854;2023-05-23T01:27:59;13.90;99.90
46730;DHT22;32476;50.002;11.854;2023-05-23T01:30:31;13.90;99.90
46730;DHT22;32476;50.002;11.854;2023-05-23T01:32:57;13.80;99.90
46730;DHT22;32476;50.002;11.854;2023-05-23T01:35:24;13.90;99.90
46730;DHT22;32476;50.002;11.854;2023-05-23T01:37:55;14.10;99.90
46730;DHT22;32476;50.002;11.854;2023-05-23T01:40:24;14.40;99.90
46730;DHT22;32476;50.002;11.854;2023-05-23T01:46:43;14.30;99.90
46730;DHT22;32476;50.002;11.854;2023-05-23T01:49:11;14.10;99.90
46730;DHT22;32476;50.002;11.854;2023-05-23T01:51:37;14.10;99.90
46730;DHT22;32476;50.002;11.854;2023-05-23T01:54:06;14.10;99.90
46730;DHT22;32476;50.002;11.854;2023-05-23T01:56:32;14.10;99.90
46730;DHT22;32476;50.002;11.854;2023-05-23T01:58:58;14.20;99.90
46730;DHT22;32476;50.002;11.854;2023-05-23T02:01:26;14.20;99.90
46730;DHT22;32476;50.002;11.854;2023-05-23T02:03:52;14.20;99.90
46730;DHT22;32476;50.002;11.854;2023-05-23T02:06:18;14.20;99.90
46730;DHT22;32476;50.002;11.854;2023-05-23T02:08:45;14.20;99.90
46730;DHT22;32476;50.002;11.854;2023-05-23T02:11:11;14.10;99.90
46730;DHT22;32476;50.002;11.854;2023-05-23T02:13:37;14.10;99.90
46730;DHT22;32476;50.002;11.854;2023-05-23T02:16:04;14.10;99.90
46730;DHT22;32476;50.002;11.854;2023-05-23T02:18:30;14.10;99.90
46730;DHT22;32476;50.002;11.854;2023-05-23T02:20:56;14.20;99.90
46730;DHT22;32476;50.002;11.854;2023-05-23T02:23:23;14.20;99.90
46730;DHT22;32476;50.002;11.854;2023-05-23T02:25:49;14.20;99.90
46730;DHT22;32476;50.002;11.854;2023-05-23T02:28:15;14.20;99.90
46730;DHT22;32476;50.002;11.854;2023-05-23T02:30:42;14.10;99.90
46730;DHT22;32476;50.002;11.854;2023-05-23T02:33:08;14.10;99.90
46730;DHT22;32476;50.002;11.854;2023-05-23T02:35:34;14.10;99.90
46730;DHT22;32476;50.002;11.854;2023-05-23T02:38:01;14.10;99.90
46730;DHT22;32476;50.002;11.854;2023-05-23T02:40:27;14.00;99.90
46730;DHT22;32476;50.002;11.854;2023-05-23T02:42:53;14.00;99.90
46730;DHT22;32476;50.002;11.854;2023-05-23T02:45:23;14.00;99.90
46730;DHT22;32476;50.002;11.854;2023-05-23T02:47:49;14.00;99.90
46730;DHT22;32476;50.002;11.854;2023-05-23T02:50:15;13.90;99.90
46730;DHT22;32476;50.002;11.854;2023-05-23T02:52:42;14.00;99.90
46730;DHT22;32476;50.002;11.854;2023-05-23T02:55:08;14.00;99.90
46730;DHT22;32476;50.002;11.854;2023-05-23T02:57:34;14.00;99.90
46730;DHT22;32476;50.002;11.854;2023-05-23T03:00:02;14.00;99.90
46730;DHT22;32476;50.002;11.854;2023-05-23T03:02:28;14.00;99.90
46730;DHT22;32476;50.002;11.854;2023-05-23T03:04:53;14.00;99.90
46730;DHT22;32476;50.002;11.854;2023-05-23T03:07:22;14.00;99.90
46730;DHT22;32476;50.002;11.854;2023-05-23T03:09:47;14.00;99.90
46730;DHT22;32476;50.002;11.854;2023-05-23T03:12:13;14.00;99.90
46730;DHT22;32476;50.002;11.854;2023-05-23T03:14:40;14.00;99.90
46730;DHT22;32476;50.002;11.854;2023-05-23T03:17:06;14.00;99.90
46730;DHT22;32476;50.002;11.854;2023-05-23T03:19:32;13.90;99.90
46730;DHT22;32476;50.002;11.854;2023-05-23T03:21:59;13.90;99.90
46730;DHT22;32476;50.002;11.854;2023-05-23T03:24:25;13.90;99.90
46730;DHT22;32476;50.002;11.854;2023-05-23T03:26:51;13.90;99.90
46730;DHT22;32476;50.002;11.854;2023-05-23T03:29:18;13.90;99.90
46730;DHT22;32476;50.002;11.854;2023-05-23T03:31:44;13.80;99.90
46730;DHT22;32476;50.002;11.854;2023-05-23T03:34:10;13.80;99.90
46730;DHT22;32476;50.002;11.854;2023-05-23T03:36:37;13.90;99.90
46730;DHT22;32476;50.002;11.854;2023-05-23T03:39:04;13.90;99.90
46730;DHT22;32476;50.002;11.854;2023-05-23T03:41:30;13.90;99.90
46730;DHT22;32476;50.002;11.854;2023-05-23T03:43:57;13.90;99.90
46730;DHT22;32476;50.002;11.854;2023-05-23T03:46:23;13.90;99.90
46730;DHT22;32476;50.002;11.854;2023-05-23T03:48:49;13.90;99.90
46730;DHT22;32476;50.002;11.854;2023-05-23T03:51:17;13.90;99.90
46730;DHT22;32476;50.002;11.854;2023-05-23T03:53:43;14.00;99.90
46730;DHT22;32476;50.002;11.854;2023-05-23T03:56:09;13.90;99.90
46730;DHT22;32476;50.002;11.854;2023-05-23T03:58:37;14.00;99.90
46730;DHT22;32476;50.002;11.854;2023-05-23T04:01:03;14.00;99.90
46730;DHT22;32476;50.002;11.854;2023-05-23T04:03:29;13.90;99.90
46730;DHT22;32476;50.002;11.854;2023-05-23T04:05:59;13.90;99.90
46730;DHT22;32476;50.002;11.854;2023-05-23T04:08:26;14.00;99.90
46730;DHT22;32476;50.002;11.854;2023-05-23T04:10:51;14.00;99.90
46730;DHT22;32476;50.002;11.854;2023-05-23T04:13:19;14.20;99.90
46730;DHT22;32476;50.002;11.854;2023-05-23T04:15:45;14.40;99.90
46730;DHT22;32476;50.002;11.854;2023-05-23T04:18:12;14.60;99.90
46730;DHT22;32476;50.002;11.854;2023-05-23T04:20:41;14.60;99.90
46730;DHT22;32476;50.002;11.854;2023-05-23T04:23:06;14.60;99.90
46730;DHT22;32476;50.002;11.854;2023-05-23T04:25:32;14.70;99.90
46730;DHT22;32476;50.002;11.854;2023-05-23T04:28:00;14.80;99.90
46730;DHT22;32476;50.002;11.854;2023-05-23T04:30:26;14.80;99.90
46730;DHT22;32476;50.002;11.854;2023-05-23T04:32:55;14.90;99.90
46730;DHT22;32476;50.002;11.854;2023-05-23T04:35:24;15.00;99.90
46730;DHT22;32476;50.002;11.854;2023-05-23T04:37:51;15.10;99.90
46730;DHT22;32476;50.002;11.854;2023-05-23T04:40:24;15.20;99.90
46730;DHT22;32476;50.002;11.854;2023-05-23T04:42:51;15.20;99.90
46730;DHT22;32476;50.002;11.854;2023-05-23T04:45:17;15.20;99.90
46730;DHT22;32476;50.002;11.854;2023-05-23T04:47:44;15.20;99.90
46730;DHT22;32476;50.002;11.854;2023-05-23T04:50:12;15.20;99.90
46730;DHT22;32476;50.002;11.854;2023-05-23T04:52:41;15.20;99.90
46730;DHT22;32476;50.002;11.854;2023-05-23T04:55:07;15.20;99.90
46730;DHT22;32476;50.002;11.854;2023-05-23T04:57:35;15.20;99.90
46730;DHT22;32476;50.002;11.854;2023-05-23T05:00:02;15.10;99.90
46730;DHT22;32476;50.002;11.854;2023-05-23T05:02:32;15.20;99.90
46730;DHT22;32476;50.002;11.854;2023-05-23T05:05:01;15.20;99.90
46730;DHT22;32476;50.002;11.854;2023-05-23T05:07:29;15.30;99.90
46730;DHT22;32476;50.002;11.854;2023-05-23T05:09:55;15.30;99.90
46730;DHT22;32476;50.002;11.854;2023-05-23T05:12:22;15.40;99.90
46730;DHT22;32476;50.002;11.854;2023-05-23T05:14:48;15.40;99.90
46730;DHT22;32476;50.002;11.854;2023-05-23T05:17:14;15.50;99.90
46730;DHT22;32476;50.002;11.854;2023-05-23T05:19:41;15.40;99.90
46730;DHT22;32476;50.002;11.854;2023-05-23T05:22:08;15.40;99.90
46730;DHT22;32476;50.002;11.854;2023-05-23T05:24:35;15.40;99.90
46730;DHT22;32476;50.002;11.854;2023-05-23T05:27:02;15.30;99.90
46730;DHT22;32476;50.002;11.854;2023-05-23T05:29:28;15.30;99.90
46730;DHT22;32476;50.002;11.854;2023-05-23T05:31:54;15.10;99.90
46730;DHT22;32476;50.002;11.854;2023-05-23T05:34:21;15.10;99.90
46730;DHT22;32476;50.002;11.854;2023-05-23T05:36:47;15.10;99.90
46730;DHT22;32476;50.002;11.854;2023-05-23T05:39:14;15.10;99.90
46730;DHT22;32476;50.002;11.854;2023-05-23T05:41:41;15.00;99.90
46730;DHT22;32476;50.002;11.854;2023-05-23T05:44:08;15.00;99.90
46730;DHT22;32476;50.002;11.854;2023-05-23T05:46:34;15.00;99.90
46730;DHT22;32476;50.002;11.854;2023-05-23T05:49:01;15.10;99.90
46730;DHT22;32476;50.002;11.854;2023-05-23T05:51:27;15.10;99.90
46730;DHT22;32476;50.002;11.854;2023-05-23T05:53:53;15.10;99.90
46730;DHT22;32476;50.002;11.854;2023-05-23T05:56:21;15.10;99.90
46730;DHT22;32476;50.002;11.854;2023-05-23T05:58:47;15.00;99.90
46730;DHT22;32476;50.002;11.854;2023-05-23T06:01:13;15.10;99.90
46730;DHT22;32476;50.002;11.854;2023-05-23T06:03:41;15.00;99.90
46730;DHT22;32476;50.002;11.854;2023-05-23T06:06:06;15.00;99.90
46730;DHT22;32476;50.002;11.854;2023-05-23T06:08:33;15.00;99.90
46730;DHT22;32476;50.002;11.854;2023-05-23T06:11:00;14.90;99.90
46730;DHT22;32476;50.002;11.854;2023-05-23T06:13:27;15.00;99.90
46730;DHT22;32476;50.002;11.854;2023-05-23T06:15:53;15.10;99.90
46730;DHT22;32476;50.002;11.854;2023-05-23T06:18:20;15.10;99.90
46730;DHT22;32476;50.002;11.854;2023-05-23T06:20:46;15.10;99.90
46730;DHT22;32476;50.002;11.854;2023-05-23T06:23:12;15.20;99.90
46730;DHT22;32476;50.002;11.854;2023-05-23T06:25:40;15.20;99.90
46730;DHT22;32476;50.002;11.854;2023-05-23T06:28:05;15.30;99.90
46730;DHT22;32476;50.002;11.854;2023-05-23T06:30:31;15.50;99.90
46730;DHT22;32476;50.002;11.854;2023-05-23T06:32:59;15.60;99.90
46730;DHT22;32476;50.002;11.854;2023-05-23T06:35:25;15.80;99.90
46730;DHT22;32476;50.002;11.854;2023-05-23T06:37:51;15.60;99.90
46730;DHT22;32476;50.002;11.854;2023-05-23T06:40:18;15.70;99.90
46730;DHT22;32476;50.002;11.854;2023-05-23T06:42:44;15.60;99.90
46730;DHT22;32476;50.002;11.854;2023-05-23T06:45:10;15.70;99.90
46730;DHT22;32476;50.002;11.854;2023-05-23T06:47:37;15.50;99.90
46730;DHT22;32476;50.002;11.854;2023-05-23T06:50:03;15.70;99.90
46730;DHT22;32476;50.002;11.854;2023-05-23T06:52:29;15.70;99.90
46730;DHT22;32476;50.002;11.854;2023-05-23T06:54:56;15.80;99.90
46730;DHT22;32476;50.002;11.854;2023-05-23T06:57:22;15.70;99.90
46730;DHT22;32476;50.002;11.854;2023-05-23T06:59:48;15.70;99.90
46730;DHT22;32476;50.002;11.854;2023-05-23T07:02:15;15.80;99.90
46730;DHT22;32476;50.002;11.854;2023-05-23T07:04:41;15.70;99.90
46730;DHT22;32476;50.002;11.854;2023-05-23T07:07:07;15.60;99.90
46730;DHT22;32476;50.002;11.854;2023-05-23T07:09:34;15.30;99.90
46730;DHT22;32476;50.002;11.854;2023-05-23T07:12:00;15.20;99.90
46730;DHT22;32476;50.002;11.854;2023-05-23T07:14:25;15.30;99.90
46730;DHT22;32476;50.002;11.854;2023-05-23T07:16:53;15.30;99.90
46730;DHT22;32476;50.002;11.854;2023-05-23T07:19:18;15.40;99.90
46730;DHT22;32476;50.002;11.854;2023-05-23T07:21:44;15.40;99.90
46730;DHT22;32476;50.002;11.854;2023-05-23T07:24:11;15.60;99.90
46730;DHT22;32476;50.002;11.854;2023-05-23T07:26:37;15.70;99.90
46730;DHT22;32476;50.002;11.854;2023-05-23T07:29:03;16.10;99.90
46730;DHT22;32476;50.002;11.854;2023-05-23T07:31:30;16.10;99.90
46730;DHT22;32476;50.002;11.854;2023-05-23T07:33:56;16.60;99.90
46730;DHT22;32476;50.002;11.854;2023-05-23T07:36:22;16.70;99.90
46730;DHT22;32476;50.002;11.854;2023-05-23T07:38:49;17.10;99.90
46730;DHT22;32476;50.002;11.854;2023-05-23T07:41:15;16.80;99.90
46730;DHT22;32476;50.002;11.854;2023-05-23T07:43:41;16.80;99.90
46730;DHT22;32476;50.002;11.854;2023-05-23T07:46:08;17.10;99.90
46730;DHT22;32476;50.002;11.854;2023-05-23T07:48:34;17.10;99.90
46730;DHT22;32476;50.002;11.854;2023-05-23T07:51:00;17.20;99.90
46730;DHT22;32476;50.002;11.854;2023-05-23T07:53:27;17.40;99.90
46730;DHT22;32476;50.002;11.854;2023-05-23T07:55:53;17.40;99.90
46730;DHT22;32476;50.002;11.854;2023-05-23T07:58:19;17.00;99.90
46730;DHT22;32476;50.002;11.854;2023-05-23T08:00:46;16.90;99.90
46730;DHT22;32476;50.002;11.854;2023-05-23T08:03:12;16.60;99.90
46730;DHT22;32476;50.002;11.854;2023-05-23T08:05:38;16.70;99.90
46730;DHT22;32476;50.002;11.854;2023-05-23T08:08:05;16.70;99.90
46730;DHT22;32476;50.002;11.854;2023-05-23T08:10:31;16.40;99.90
46730;DHT22;32476;50.002;11.854;2023-05-23T08:12:56;16.50;99.90
46730;DHT22;32476;50.002;11.854;2023-05-23T08:15:26;16.60;99.90
46730;DHT22;32476;50.002;11.854;2023-05-23T08:17:58;16.80;99.90
46730;DHT22;32476;50.002;11.854;2023-05-23T08:20:26;16.90;99.90
46730;DHT22;32476;50.002;11.854;2023-05-23T08:22:57;16.70;99.90
46730;DHT22;32476;50.002;11.854;2023-05-23T08:25:24;17.00;99.90
46730;DHT22;32476;50.002;11.854;2023-05-23T08:27:52;16.90;99.90
46730;DHT22;32476;50.002;11.854;2023-05-23T08:30:17;16.60;99.90
46730;DHT22;32476;50.002;11.854;2023-05-23T08:32:44;16.40;99.90
46730;DHT22;32476;50.002;11.854;2023-05-23T08:35:11;16.40;99.90
46730;DHT22;32476;50.002;11.854;2023-05-23T08:37:37;16.30;99.90
46730;DHT22;32476;50.002;11.854;2023-05-23T08:40:05;16.10;99.90
46730;DHT22;32476;50.002;11.854;2023-05-23T08:42:34;16.00;99.90
46730;DHT22;32476;50.002;11.854;2023-05-23T08:45:00;16.00;99.90
46730;DHT22;32476;50.002;11.854;2023-05-23T08:47:27;16.00;99.90
46730;DHT22;32476;50.002;11.854;2023-05-23T08:49:55;16.00;99.90
46730;DHT22;32476;50.002;11.854;2023-05-23T08:52:23;15.80;99.90
46730;DHT22;32476;50.002;11.854;2023-05-23T08:54:50;15.60;99.90
46730;DHT22;32476;50.002;11.854;2023-05-23T08:57:17;15.70;99.90
46730;DHT22;32476;50.002;11.854;2023-05-23T08:59:43;15.90;99.90
46730;DHT22;32476;50.002;11.854;2023-05-23T09:02:10;16.10;99.90
46730;DHT22;32476;50.002;11.854;2023-05-23T09:04:38;16.10;99.90
46730;DHT22;32476;50.002;11.854;2023-05-23T09:07:04;16.60;99.90
46730;DHT22;32476;50.002;11.854;2023-05-23T09:09:31;16.90;99.90
46730;DHT22;32476;50.002;11.854;2023-05-23T09:11:58;17.20;99.90
46730;DHT22;32476;50.002;11.854;2023-05-23T09:14:25;17.30;99.90
46730;DHT22;32476;50.002;11.854;2023-05-23T09:16:51;17.10;99.90
46730;DHT22;32476;50.002;11.854;2023-05-23T09:19:18;16.90;99.90
46730;DHT22;32476;50.002;11.854;2023-05-23T09:21:44;16.90;99.90
46730;DHT22;32476;50.002;11.854;2023-05-23T09:24:11;16.90;99.90
46730;DHT22;32476;50.002;11.854;2023-05-23T09:26:38;17.00;99.90
46730;DHT22;32476;50.002;11.854;2023-05-23T09:29:05;17.00;99.90
46730;DHT22;32476;50.002;11.854;2023-05-23T09:31:32;17.30;99.90
46730;DHT22;32476;50.002;11.854;2023-05-23T09:33:59;17.40;99.90
46730;DHT22;32476;50.002;11.854;2023-05-23T09:36:27;17.20;99.90
46730;DHT22;32476;50.002;11.854;2023-05-23T09:39:03;16.70;99.90
46730;DHT22;32476;50.002;11.854;2023-05-23T09:41:35;16.50;99.90
46730;DHT22;32476;50.002;11.854;2023-05-23T09:44:07;16.70;99.90
46730;DHT22;32476;50.002;11.854;2023-05-23T09:46:35;17.10;99.90
46730;DHT22;32476;50.002;11.854;2023-05-23T09:49:14;17.60;99.90
46730;DHT22;32476;50.002;11.854;2023-05-23T09:51:41;17.60;99.90
46730;DHT22;32476;50.002;11.854;2023-05-23T09:54:09;17.80;99.90
46730;DHT22;32476;50.002;11.854;2023-05-23T09:56:36;17.60;99.90
46730;DHT22;32476;50.002;11.854;2023-05-23T09:59:04;17.70;99.90
46730;DHT22;32476;50.002;11.854;2023-05-23T10:01:34;17.00;99.90
46730;DHT22;32476;50.002;11.854;2023-05-23T10:04:02;17.30;99.90
46730;DHT22;32476;50.002;11.854;2023-05-23T10:06:43;16.90;99.90
46730;DHT22;32476;50.002;11.854;2023-05-23T10:09:16;16.80;99.90
46730;DHT22;32476;50.002;11.854;2023-05-23T10:12:20;16.80;99.90
46730;DHT22;32476;50.002;11.854;2023-05-23T10:14:53;17.00;99.90
46730;DHT22;32476;50.002;11.854;2023-05-23T10:20:10;18.10;99.90
46730;DHT22;32476;50.002;11.854;2023-05-23T10:22:39;17.30;99.90
46730;DHT22;32476;50.002;11.854;2023-05-23T10:25:05;17.10;99.90
46730;DHT22;32476;50.002;11.854;2023-05-23T10:27:37;16.70;99.90
46730;DHT22;32476;50.002;11.854;2023-05-23T10:30:04;16.80;99.90
46730;DHT22;32476;50.002;11.854;2023-05-23T10:32:31;16.80;99.90
46730;DHT22;32476;50.002;11.854;2023-05-23T10:40:36;16.90;99.90
46730;DHT22;32476;50.002;11.854;2023-05-23T10:43:15;16.90;99.90
46730;DHT22;32476;50.002;11.854;2023-05-23T10:45:46;16.90;99.90
46730;DHT22;32476;50.002;11.854;2023-05-23T10:48:32;17.60;99.90
46730;DHT22;32476;50.002;11.854;2023-05-23T10:51:07;18.10;99.90
46730;DHT22;32476;50.002;11.854;2023-05-23T10:53:38;18.80;99.90
46730;DHT22;32476;50.002;11.854;2023-05-23T10:56:07;19.20;99.90
46730;DHT22;32476;50.002;11.854;2023-05-23T10:58:35;19.00;99.90
46730;DHT22;32476;50.002;11.854;2023-05-23T11:01:07;19.10;99.90
46730;DHT22;32476;50.002;11.854;2023-05-23T11:06:40;18.30;99.90
46730;DHT22;32476;50.002;11.854;2023-05-23T11:09:11;18.00;99.90
46730;DHT22;32476;50.002;11.854;2023-05-23T11:16:56;17.30;99.90
46730;DHT22;32476;50.002;11.854;2023-05-23T11:19:25;17.60;99.90
46730;DHT22;32476;50.002;11.854;2023-05-23T11:21:59;17.50;99.90
46730;DHT22;32476;50.002;11.854;2023-05-23T11:24:52;17.70;99.90
46730;DHT22;32476;50.002;11.854;2023-05-23T11:27:32;17.30;99.90
46730;DHT22;32476;50.002;11.854;2023-05-23T11:32:41;17.40;99.90
46730;DHT22;32476;50.002;11.854;2023-05-23T11:35:09;17.30;99.90
46730;DHT22;32476;50.002;11.854;2023-05-23T11:37:37;16.50;99.90
46730;DHT22;32476;50.002;11.854;2023-05-23T11:40:26;16.40;99.90
46730;DHT22;32476;50.002;11.854;2023-05-23T11:42:54;16.40;99.90
46730;DHT22;32476;50.002;11.854;2023-05-23T11:45:22;16.50;99.90
46730;DHT22;32476;50.002;11.854;2023-05-23T11:47:48;16.40;99.90
46730;DHT22;32476;50.002;11.854;2023-05-23T11:50:15;16.40;99.90
46730;DHT22;32476;50.002;11.854;2023-05-23T11:52:41;16.80;99.90
46730;DHT22;32476;50.002;11.854;2023-05-23T11:55:09;16.90;99.90
46730;DHT22;32476;50.002;11.854;2023-05-23T11:57:39;17.30;99.90
46730;DHT22;32476;50.002;11.854;2023-05-23T12:00:06;17.30;99.90
46730;DHT22;32476;50.002;11.854;2023-05-23T12:02:43;17.50;99.90
46730;DHT22;32476;50.002;11.854;2023-05-23T12:05:12;17.40;99.90
46730;DHT22;32476;50.002;11.854;2023-05-23T12:07:41;16.80;99.90
46730;DHT22;32476;50.002;11.854;2023-05-23T12:10:10;16.70;99.90
46730;DHT22;32476;50.002;11.854;2023-05-23T12:12:39;16.40;99.90
46730;DHT22;32476;50.002;11.854;2023-05-23T12:15:06;16.60;99.90
46730;DHT22;32476;50.002;11.854;2023-05-23T12:17:32;16.40;99.90
46730;DHT22;32476;50.002;11.854;2023-05-23T12:20:00;16.40;99.90
46730;DHT22;32476;50.002;11.854;2023-05-23T12:22:27;16.20;99.90
46730;DHT22;32476;50.002;11.854;2023-05-23T12:24:53;16.20;99.90
46730;DHT22;32476;50.002;11.854;2023-05-23T12:27:32;16.20;99.90
46730;DHT22;32476;50.002;11.854;2023-05-23T12:30:17;16.40;99.90
46730;DHT22;32476;50.002;11.854;2023-05-23T12:32:47;16.40;99.90
46730;DHT22;32476;50.002;11.854;2023-05-23T12:35:14;16.40;99.90
46730;DHT22;32476;50.002;11.854;2023-05-23T12:37:43;16.40;99.90
46730;DHT22;32476;50.002;11.854;2023-05-23T12:40:12;16.40;99.90
46730;DHT22;32476;50.002;11.854;2023-05-23T12:42:51;16.30;99.90
46730;DHT22;32476;50.002;11.854;2023-05-23T12:45:20;16.10;99.90
46730;DHT22;32476;50.002;11.854;2023-05-23T12:47:47;16.10;99.90
46730;DHT22;32476;50.002;11.854;2023-05-23T12:50:12;16.20;99.90
46730;DHT22;32476;50.002;11.854;2023-05-23T12:52:40;16.30;99.90
46730;DHT22;32476;50.002;11.854;2023-05-23T12:55:07;16.40;99.90
46730;DHT22;32476;50.002;11.854;2023-05-23T12:57:34;16.30;99.90
46730;DHT22;32476;50.002;11.854;2023-05-23T13:00:01;16.20;99.90
46730;DHT22;32476;50.002;11.854;2023-05-23T13:02:28;16.00;99.90
46730;DHT22;32476;50.002;11.854;2023-05-23T13:04:54;15.70;99.90
46730;DHT22;32476;50.002;11.854;2023-05-23T13:07:22;15.70;99.90
46730;DHT22;32476;50.002;11.854;2023-05-23T13:09:48;15.70;99.90
46730;DHT22;32476;50.002;11.854;2023-05-23T13:12:14;15.90;99.90
46730;DHT22;32476;50.002;11.854;2023-05-23T13:14:41;15.80;99.90
46730;DHT22;32476;50.002;11.854;2023-05-23T13:17:07;16.10;99.90
46730;DHT22;32476;50.002;11.854;2023-05-23T13:19:33;16.00;99.90
46730;DHT22;32476;50.002;11.854;2023-05-23T13:22:00;16.20;99.90
46730;DHT22;32476;50.002;11.854;2023-05-23T13:24:28;16.50;99.90
46730;DHT22;32476;50.002;11.854;2023-05-23T13:26:54;16.50;99.90
46730;DHT22;32476;50.002;11.854;2023-05-23T13:29:22;15.90;99.90
46730;DHT22;32476;50.002;11.854;2023-05-23T13:31:48;15.60;99.90
46730;DHT22;32476;50.002;11.854;2023-05-23T13:34:13;15.50;99.90
46730;DHT22;32476;50.002;11.854;2023-05-23T13:36:41;15.70;99.90
46730;DHT22;32476;50.002;11.854;2023-05-23T13:39:07;15.50;99.90
46730;DHT22;32476;50.002;11.854;2023-05-23T13:41:33;15.40;99.90
46730;DHT22;32476;50.002;11.854;2023-05-23T13:44:00;15.40;99.90
46730;DHT22;32476;50.002;11.854;2023-05-23T13:46:26;15.50;99.90
46730;DHT22;32476;50.002;11.854;2023-05-23T13:48:52;15.40;99.90
46730;DHT22;32476;50.002;11.854;2023-05-23T13:51:19;15.20;99.90
46730;DHT22;32476;50.002;11.854;2023-05-23T13:53:45;15.00;99.90
46730;DHT22;32476;50.002;11.854;2023-05-23T13:56:11;15.00;99.90
46730;DHT22;32476;50.002;11.854;2023-05-23T13:58:38;14.90;99.90
46730;DHT22;32476;50.002;11.854;2023-05-23T14:01:04;15.00;99.90
46730;DHT22;32476;50.002;11.854;2023-05-23T14:03:30;14.80;99.90
46730;DHT22;32476;50.002;11.854;2023-05-23T14:05:57;14.70;99.90
46730;DHT22;32476;50.002;11.854;2023-05-23T14:08:23;14.70;99.90
46730;DHT22;32476;50.002;11.854;2023-05-23T14:10:49;14.60;99.90
46730;DHT22;32476;50.002;11.854;2023-05-23T14:13:16;14.70;99.90
46730;DHT22;32476;50.002;11.854;2023-05-23T14:15:42;14.50;99.90
46730;DHT22;32476;50.002;11.854;2023-05-23T14:18:08;14.40;99.90
46730;DHT22;32476;50.002;11.854;2023-05-23T14:20:35;14.40;99.90
46730;DHT22;32476;50.002;11.854;2023-05-23T14:23:01;14.30;99.90
46730;DHT22;32476;50.002;11.854;2023-05-23T14:25:28;14.40;99.90
46730;DHT22;32476;50.002;11.854;2023-05-23T14:27:56;14.20;99.90
46730;DHT22;32476;50.002;11.854;2023-05-23T14:30:22;14.20;99.90
46730;DHT22;32476;50.002;11.854;2023-05-23T14:32:48;14.20;99.90
46730;DHT22;32476;50.002;11.854;2023-05-23T14:35:16;14.30;99.90
46730;DHT22;32476;50.002;11.854;2023-05-23T14:37:43;14.20;99.90
46730;DHT22;32476;50.002;11.854;2023-05-23T14:40:09;14.30;99.90
46730;DHT22;32476;50.002;11.854;2023-05-23T14:42:37;14.30;99.90
46730;DHT22;32476;50.002;11.854;2023-05-23T14:45:03;14.20;99.90
46730;DHT22;32476;50.002;11.854;2023-05-23T14:47:29;14.20;99.90
46730;DHT22;32476;50.002;11.854;2023-05-23T14:49:58;14.30;99.90
46730;DHT22;32476;50.002;11.854;2023-05-23T14:52:24;14.20;99.90
46730;DHT22;32476;50.002;11.854;2023-05-23T14:54:50;14.20;99.90
46730;DHT22;32476;50.002;11.854;2023-05-23T14:57:18;14.20;99.90
46730;DHT22;32476;50.002;11.854;2023-05-23T14:59:43;14.50;99.90
46730;DHT22;32476;50.002;11.854;2023-05-23T15:02:11;14.50;99.90
46730;DHT22;32476;50.002;11.854;2023-05-23T15:04:39;14.30;99.90
46730;DHT22;32476;50.002;11.854;2023-05-23T15:07:05;14.40;99.90
46730;DHT22;32476;50.002;11.854;2023-05-23T15:09:30;14.40;99.90
46730;DHT22;32476;50.002;11.854;2023-05-23T15:11:58;14.40;99.90
46730;DHT22;32476;50.002;11.854;2023-05-23T15:14:24;14.30;99.90
46730;DHT22;32476;50.002;11.854;2023-05-23T15:16:54;14.10;99.90
46730;DHT22;32476;50.002;11.854;2023-05-23T15:19:22;14.00;99.90
46730;DHT22;32476;50.002;11.854;2023-05-23T15:21:48;13.70;99.90
46730;DHT22;32476;50.002;11.854;2023-05-23T15:24:14;13.70;99.90
46730;DHT22;32476;50.002;11.854;2023-05-23T15:26:41;13.70;99.90
46730;DHT22;32476;50.002;11.854;2023-05-23T15:29:07;13.60;99.90
46730;DHT22;32476;50.002;11.854;2023-05-23T15:31:32;13.70;99.90
46730;DHT22;32476;50.002;11.854;2023-05-23T15:34:01;13.80;99.90
46730;DHT22;32476;50.002;11.854;2023-05-23T15:36:26;13.80;99.90
46730;DHT22;32476;50.002;11.854;2023-05-23T15:38:52;13.70;99.90
46730;DHT22;32476;50.002;11.854;2023-05-23T15:41:19;13.80;99.90
46730;DHT22;32476;50.002;11.854;2023-05-23T15:43:45;13.60;99.90
46730;DHT22;32476;50.002;11.854;2023-05-23T15:46:11;13.50;99.90
46730;DHT22;32476;50.002;11.854;2023-05-23T15:48:38;13.60;99.90
46730;DHT22;32476;50.002;11.854;2023-05-23T15:51:04;13.50;99.90